createdAt,value
2017-02-14T00:00:31.748Z,1020.8
2017-02-14T00:01:31.726Z,1020.79
2017-02-14T00:02:31.699Z,1020.84
2017-02-14T00:03:31.680Z,1020.76
2017-02-14T00:04:31.657Z,1020.81
2017-02-14T00:05:31.635Z,1020.82
2017-02-14T00:06:31.613Z,1020.8
2017-02-14T00:07:31.591Z,1020.77
2017-02-14T00:08:31.564Z,1020.79
2017-02-14T00:09:31.544Z,1020.75
2017-02-14T00:10:31.520Z,1020.74
2017-02-14T00:11:31.500Z,1020.76
2017-02-14T00:12:31.477Z,1020.73
2017-02-14T00:13:31.454Z,1020.72
2017-02-14T00:14:31.432Z,1020.66
2017-02-14T00:15:31.408Z,1020.68
2017-02-14T00:16:31.385Z,1020.71
2017-02-14T00:17:31.364Z,1020.65
2017-02-14T00:18:31.341Z,1020.65
2017-02-14T00:19:31.319Z,1020.66
2017-02-14T00:20:31.296Z,1020.66
2017-02-14T00:21:31.273Z,1020.64
2017-02-14T00:22:31.254Z,1020.64
2017-02-14T00:23:31.228Z,1020.66
2017-02-14T00:24:31.205Z,1020.64
2017-02-14T00:25:31.183Z,1020.6
2017-02-14T00:26:31.361Z,1020.61
2017-02-14T00:27:31.141Z,1020.55
2017-02-14T00:28:31.116Z,1020.58
2017-02-14T00:29:31.097Z,1020.56
2017-02-14T00:30:31.071Z,1020.52
2017-02-14T00:31:31.049Z,1020.58
2017-02-14T00:32:31.025Z,1020.54
2017-02-14T00:33:31.002Z,1020.55
2017-02-14T00:34:30.979Z,1020.59
2017-02-14T00:35:30.958Z,1020.58
2017-02-14T00:36:30.933Z,1020.55
2017-02-14T00:37:30.910Z,1020.55
2017-02-14T00:38:30.889Z,1020.58
2017-02-14T00:39:30.866Z,1020.54
2017-02-14T00:40:30.843Z,1020.5
2017-02-14T00:41:30.820Z,1020.48
2017-02-14T00:42:30.802Z,1020.48
2017-02-14T00:43:30.778Z,1020.54
2017-02-14T00:44:30.757Z,1020.5
2017-02-14T00:45:30.731Z,1020.47
2017-02-14T00:46:30.708Z,1020.44
2017-02-14T00:47:30.687Z,1020.4
2017-02-14T00:48:30.661Z,1020.41
2017-02-14T00:49:30.641Z,1020.47
2017-02-14T00:50:30.617Z,1020.49
2017-02-14T00:51:30.594Z,1020.45
2017-02-14T00:52:30.575Z,1020.55
2017-02-14T00:53:30.551Z,1020.53
2017-02-14T00:54:30.525Z,1020.53
2017-02-14T00:55:30.505Z,1020.51
2017-02-14T00:56:30.482Z,1020.58
2017-02-14T00:57:30.457Z,1020.55
2017-02-14T00:58:30.434Z,1020.58
2017-02-14T00:59:30.462Z,1020.56
2017-02-14T01:00:30.390Z,1020.62
2017-02-14T01:01:30.365Z,1020.63
2017-02-14T01:02:30.344Z,1020.58
2017-02-14T01:03:30.321Z,1020.64
2017-02-14T01:04:30.299Z,1020.64
2017-02-14T01:05:30.277Z,1020.67
2017-02-14T01:06:30.254Z,1020.66
2017-02-14T01:07:30.232Z,1020.67
2017-02-14T01:08:30.211Z,1020.64
2017-02-14T01:09:30.186Z,1020.7
2017-02-14T01:10:30.165Z,1020.69
2017-02-14T01:11:30.141Z,1020.71
2017-02-14T01:12:30.118Z,1020.69
2017-02-14T01:13:30.096Z,1020.68
2017-02-14T01:14:30.072Z,1020.65
2017-02-14T01:15:30.055Z,1020.68
2017-02-14T01:16:30.029Z,1020.73
2017-02-14T01:17:30.003Z,1020.66
2017-02-14T01:18:29.982Z,1020.61
2017-02-14T01:19:29.959Z,1020.65
2017-02-14T01:20:29.936Z,1020.61
2017-02-14T01:21:29.917Z,1020.59
2017-02-14T01:22:29.891Z,1020.63
2017-02-14T01:23:29.868Z,1020.6
2017-02-14T01:24:29.869Z,1020.57
2017-02-14T01:25:29.826Z,1020.53
2017-02-14T01:26:29.800Z,1020.57
2017-02-14T01:27:29.778Z,1020.54
2017-02-14T01:28:29.755Z,1020.52
2017-02-14T01:29:29.732Z,1020.53
2017-02-14T01:30:29.709Z,1020.48
2017-02-14T01:31:29.686Z,1020.46
2017-02-14T01:32:29.665Z,1020.42
2017-02-14T01:33:29.641Z,1020.45
2017-02-14T01:34:29.617Z,1020.45
2017-02-14T01:35:29.597Z,1020.4
2017-02-14T01:36:29.573Z,1020.42
2017-02-14T01:37:29.552Z,1020.37
2017-02-14T01:38:29.526Z,1020.33
2017-02-14T01:39:29.505Z,1020.38
2017-02-14T01:40:29.483Z,1020.36
2017-02-14T01:41:29.486Z,1020.32
2017-02-14T01:42:29.435Z,1020.31
2017-02-14T01:43:29.415Z,1020.29
2017-02-14T01:44:29.391Z,1020.27
2017-02-14T01:45:29.368Z,1020.22
2017-02-14T01:46:29.344Z,1020.27
2017-02-14T01:47:29.323Z,1020.24
2017-02-14T01:48:29.301Z,1020.25
2017-02-14T01:49:29.277Z,1020.27
2017-02-14T01:50:29.252Z,1020.22
2017-02-14T01:51:29.232Z,1020.23
2017-02-14T01:52:29.208Z,1020.18
2017-02-14T01:53:29.185Z,1020.17
2017-02-14T01:54:29.161Z,1020.17
2017-02-14T01:55:29.140Z,1020.13
2017-02-14T01:56:29.115Z,1020.15
2017-02-14T01:57:29.093Z,1020.16
2017-02-14T01:58:29.071Z,1020.15
2017-02-14T01:59:29.049Z,1020.14
2017-02-14T02:00:29.025Z,1020.14
2017-02-14T02:01:29.052Z,1020.15
2017-02-14T02:02:28.981Z,1020.13
2017-02-14T02:03:28.958Z,1020.13
2017-02-14T02:04:28.935Z,1020.07
2017-02-14T02:05:28.913Z,1020.06
2017-02-14T02:06:28.890Z,1020.07
2017-02-14T02:07:28.891Z,1020.09
2017-02-14T02:08:28.869Z,1020.09
2017-02-14T02:09:28.821Z,1020.1
2017-02-14T02:10:28.799Z,1020.11
2017-02-14T02:11:28.775Z,1020.09
2017-02-14T02:12:28.756Z,1020.11
2017-02-14T02:13:28.730Z,1020.11
2017-02-14T02:14:28.707Z,1020.12
2017-02-14T02:15:28.684Z,1020.07
2017-02-14T02:16:28.663Z,1020.11
2017-02-14T02:17:28.640Z,1020.05
2017-02-14T02:18:28.616Z,1020.11
2017-02-14T02:19:28.591Z,1020.09
2017-02-14T02:20:28.568Z,1020.11
2017-02-14T02:21:28.545Z,1020.15
2017-02-14T02:22:28.526Z,1020.12
2017-02-14T02:23:28.501Z,1020.15
2017-02-14T02:24:28.480Z,1020.14
2017-02-14T02:25:28.455Z,1020.13
2017-02-14T02:26:28.635Z,1020.14
2017-02-14T02:27:28.411Z,1020.12
2017-02-14T02:28:28.388Z,1020.13
2017-02-14T02:29:28.364Z,1020.08
2017-02-14T02:30:28.342Z,1020.13
2017-02-14T02:31:28.318Z,1020.05
2017-02-14T02:32:28.297Z,1020.06
2017-02-14T02:33:28.272Z,1020.07
2017-02-14T02:34:28.250Z,1020.05
2017-02-14T02:35:28.228Z,1020.09
2017-02-14T02:36:28.202Z,1020.07
2017-02-14T02:37:28.179Z,1020.03
2017-02-14T02:38:28.158Z,1020.03
2017-02-14T02:39:28.136Z,1020.03
2017-02-14T02:40:28.112Z,1019.96
2017-02-14T02:41:28.089Z,1019.95
2017-02-14T02:42:28.065Z,1019.99
2017-02-14T02:43:28.046Z,1019.95
2017-02-14T02:44:28.021Z,1019.95
2017-02-14T02:45:27.999Z,1019.98
2017-02-14T02:46:27.977Z,1019.92
2017-02-14T02:47:27.951Z,1019.95
2017-02-14T02:48:27.929Z,1019.86
2017-02-14T02:49:27.913Z,1019.82
2017-02-14T02:50:27.892Z,1019.8
2017-02-14T02:51:27.864Z,1019.8
2017-02-14T02:52:27.841Z,1019.79
2017-02-14T02:53:27.814Z,1019.81
2017-02-14T02:54:27.795Z,1019.8
2017-02-14T02:55:27.769Z,1019.81
2017-02-14T02:56:27.745Z,1019.78
2017-02-14T02:57:27.724Z,1019.75
2017-02-14T02:58:27.699Z,1019.76
2017-02-14T02:59:27.675Z,1019.73
2017-02-14T03:00:27.655Z,1019.72
2017-02-14T03:01:27.631Z,1019.67
2017-02-14T03:02:27.610Z,1019.63
2017-02-14T03:03:27.585Z,1019.6
2017-02-14T03:04:27.563Z,1019.61
2017-02-14T03:05:27.538Z,1019.63
2017-02-14T03:06:27.516Z,1019.6
2017-02-14T03:07:27.493Z,1019.62
2017-02-14T03:08:27.470Z,1019.63
2017-02-14T03:09:27.445Z,1019.66
2017-02-14T03:10:27.426Z,1019.66
2017-02-14T03:11:27.400Z,1019.62
2017-02-14T03:12:27.380Z,1019.62
2017-02-14T03:13:27.353Z,1019.64
2017-02-14T03:14:27.330Z,1019.62
2017-02-14T03:15:27.337Z,1019.63
2017-02-14T03:16:27.289Z,1019.65
2017-02-14T03:17:27.260Z,1019.63
2017-02-14T03:18:27.240Z,1019.67
2017-02-14T03:19:27.216Z,1019.63
2017-02-14T03:20:27.191Z,1019.64
2017-02-14T03:21:27.168Z,1019.62
2017-02-14T03:22:27.144Z,1019.6
2017-02-14T03:23:27.122Z,1019.61
2017-02-14T03:24:27.102Z,1019.64
2017-02-14T03:25:27.085Z,1019.63
2017-02-14T03:26:27.053Z,1019.72
2017-02-14T03:27:27.030Z,1019.65
2017-02-14T03:28:27.006Z,1019.68
2017-02-14T03:29:26.982Z,1019.66
2017-02-14T03:30:26.962Z,1019.59
2017-02-14T03:31:26.936Z,1019.58
2017-02-14T03:32:26.921Z,1019.55
2017-02-14T03:33:26.891Z,1019.55
2017-02-14T03:34:26.868Z,1019.57
2017-02-14T03:35:26.847Z,1019.56
2017-02-14T03:36:26.821Z,1019.62
2017-02-14T03:37:26.799Z,1019.63
2017-02-14T03:38:26.777Z,1019.62
2017-02-14T03:39:26.752Z,1019.62
2017-02-14T03:40:26.730Z,1019.63
2017-02-14T03:41:26.706Z,1019.62
2017-02-14T03:42:26.683Z,1019.66
2017-02-14T03:43:26.661Z,1019.59
2017-02-14T03:44:26.638Z,1019.56
2017-02-14T03:45:26.617Z,1019.54
2017-02-14T03:46:26.590Z,1019.54
2017-02-14T03:47:26.566Z,1019.53
2017-02-14T03:48:26.547Z,1019.51
2017-02-14T03:49:26.521Z,1019.49
2017-02-14T03:50:26.497Z,1019.48
2017-02-14T03:51:26.476Z,1019.47
2017-02-14T03:52:26.452Z,1019.44
2017-02-14T03:53:26.428Z,1019.43
2017-02-14T03:54:26.403Z,1019.45
2017-02-14T03:55:26.383Z,1019.48
2017-02-14T03:56:26.361Z,1019.51
2017-02-14T03:57:26.334Z,1019.45
2017-02-14T03:58:26.312Z,1019.46
2017-02-14T03:59:26.291Z,1019.49
2017-02-14T04:00:26.264Z,1019.49
2017-02-14T04:01:26.243Z,1019.47
2017-02-14T04:02:26.219Z,1019.49
2017-02-14T04:03:26.195Z,1019.55
2017-02-14T04:04:26.170Z,1019.55
2017-02-14T04:05:26.149Z,1019.58
2017-02-14T04:06:26.125Z,1019.65
2017-02-14T04:07:26.103Z,1019.66
2017-02-14T04:08:26.078Z,1019.67
2017-02-14T04:09:26.056Z,1019.71
2017-02-14T04:10:26.034Z,1019.72
2017-02-14T04:11:26.010Z,1019.67
2017-02-14T04:12:25.985Z,1019.65
2017-02-14T04:13:25.964Z,1019.66
2017-02-14T04:14:25.943Z,1019.69
2017-02-14T04:15:25.915Z,1019.63
2017-02-14T04:16:25.894Z,1019.66
2017-02-14T04:17:25.871Z,1019.66
2017-02-14T04:18:25.847Z,1019.66
2017-02-14T04:19:25.824Z,1019.68
2017-02-14T04:20:25.801Z,1019.67
2017-02-14T04:21:25.777Z,1019.64
2017-02-14T04:22:25.756Z,1019.63
2017-02-14T04:23:25.728Z,1019.64
2017-02-14T04:24:25.710Z,1019.58
2017-02-14T04:25:25.684Z,1019.56
2017-02-14T04:26:25.862Z,1019.52
2017-02-14T04:27:25.638Z,1019.49
2017-02-14T04:28:25.614Z,1019.51
2017-02-14T04:29:25.592Z,1019.51
2017-02-14T04:30:25.567Z,1019.48
2017-02-14T04:31:25.543Z,1019.47
2017-02-14T04:32:25.523Z,1019.54
2017-02-14T04:33:25.499Z,1019.56
2017-02-14T04:34:25.474Z,1019.51
2017-02-14T04:35:25.451Z,1019.52
2017-02-14T04:36:25.430Z,1019.51
2017-02-14T04:37:25.403Z,1019.49
2017-02-14T04:38:25.381Z,1019.53
2017-02-14T04:39:25.358Z,1019.52
2017-02-14T04:40:25.336Z,1019.54
2017-02-14T04:41:25.312Z,1019.55
2017-02-14T04:42:25.287Z,1019.58
2017-02-14T04:43:25.579Z,1019.56
2017-02-14T04:44:25.241Z,1019.57
2017-02-14T04:45:25.218Z,1019.61
2017-02-14T04:46:25.192Z,1019.58
2017-02-14T04:47:25.173Z,1019.58
2017-02-14T04:48:25.147Z,1019.57
2017-02-14T04:49:25.126Z,1019.56
2017-02-14T04:50:25.100Z,1019.58
2017-02-14T04:51:25.078Z,1019.56
2017-02-14T04:52:25.054Z,1019.53
2017-02-14T04:53:25.030Z,1019.54
2017-02-14T04:54:25.006Z,1019.58
2017-02-14T04:55:24.983Z,1019.61
2017-02-14T04:56:24.961Z,1019.54
2017-02-14T04:57:24.940Z,1019.6
2017-02-14T04:58:24.913Z,1019.59
2017-02-14T04:59:24.890Z,1019.63
2017-02-14T05:00:24.868Z,1019.63
2017-02-14T05:01:24.842Z,1019.59
2017-02-14T05:02:24.819Z,1019.58
2017-02-14T05:03:24.792Z,1019.57
2017-02-14T05:04:24.771Z,1019.53
2017-02-14T05:05:24.751Z,1019.56
2017-02-14T05:06:24.725Z,1019.6
2017-02-14T05:07:24.699Z,1019.62
2017-02-14T05:08:24.677Z,1019.62
2017-02-14T05:09:24.656Z,1019.62
2017-02-14T05:10:24.630Z,1019.62
2017-02-14T05:11:24.611Z,1019.6
2017-02-14T05:12:24.584Z,1019.62
2017-02-14T05:13:24.564Z,1019.58
2017-02-14T05:14:24.538Z,1019.57
2017-02-14T05:15:24.514Z,1019.61
2017-02-14T05:16:24.489Z,1019.59
2017-02-14T05:17:24.465Z,1019.58
2017-02-14T05:18:24.447Z,1019.58
2017-02-14T05:19:24.420Z,1019.54
2017-02-14T05:20:24.396Z,1019.52
2017-02-14T05:21:24.372Z,1019.57
2017-02-14T05:22:24.349Z,1019.58
2017-02-14T05:23:24.326Z,1019.62
2017-02-14T05:24:24.306Z,1019.6
2017-02-14T05:25:24.278Z,1019.57
2017-02-14T05:26:24.254Z,1019.55
2017-02-14T05:27:24.233Z,1019.53
2017-02-14T05:28:24.206Z,1019.6
2017-02-14T05:29:24.185Z,1019.6
2017-02-14T05:30:24.161Z,1019.57
2017-02-14T05:31:24.137Z,1019.51
2017-02-14T05:32:24.112Z,1019.47
2017-02-14T05:33:24.089Z,1019.48
2017-02-14T05:34:24.066Z,1019.5
2017-02-14T05:35:24.042Z,1019.44
2017-02-14T05:36:24.017Z,1019.47
2017-02-14T05:37:23.995Z,1019.5
2017-02-14T05:38:23.974Z,1019.48
2017-02-14T05:39:23.949Z,1019.46
2017-02-14T05:40:23.924Z,1019.42
2017-02-14T05:41:23.902Z,1019.45
2017-02-14T05:42:23.893Z,1019.42
2017-02-14T05:43:23.855Z,1019.51
2017-02-14T05:44:23.831Z,1019.44
2017-02-14T05:45:23.807Z,1019.4
2017-02-14T05:46:23.782Z,1019.44
2017-02-14T05:47:23.758Z,1019.41
2017-02-14T05:48:23.738Z,1019.4
2017-02-14T05:49:23.712Z,1019.41
2017-02-14T05:50:23.687Z,1019.38
2017-02-14T05:51:23.664Z,1019.45
2017-02-14T05:52:23.641Z,1019.43
2017-02-14T05:53:23.617Z,1019.43
2017-02-14T05:54:23.592Z,1019.43
2017-02-14T05:55:23.570Z,1019.44
2017-02-14T05:56:23.546Z,1019.4
2017-02-14T05:57:23.523Z,1019.45
2017-02-14T05:58:23.496Z,1019.38
2017-02-14T05:59:23.475Z,1019.39
2017-02-14T06:00:23.452Z,1019.37
2017-02-14T06:01:23.428Z,1019.37
2017-02-14T06:02:23.404Z,1019.36
2017-02-14T06:03:23.381Z,1019.41
2017-02-14T06:04:23.356Z,1019.43
2017-02-14T06:05:23.334Z,1019.46
2017-02-14T06:06:23.309Z,1019.51
2017-02-14T06:07:23.287Z,1019.52
2017-02-14T06:08:23.261Z,1019.5
2017-02-14T06:09:23.237Z,1019.59
2017-02-14T06:10:23.215Z,1019.62
2017-02-14T06:11:23.190Z,1019.63
2017-02-14T06:12:23.167Z,1019.6
2017-02-14T06:13:23.148Z,1019.62
2017-02-14T06:14:23.118Z,1019.65
2017-02-14T06:15:23.098Z,1019.67
2017-02-14T06:16:23.071Z,1019.63
2017-02-14T06:17:23.048Z,1019.63
2017-02-14T06:18:23.024Z,1019.6
2017-02-14T06:19:22.999Z,1019.66
2017-02-14T06:20:22.976Z,1019.63
2017-02-14T06:21:22.954Z,1019.65
2017-02-14T06:22:22.930Z,1019.64
2017-02-14T06:23:22.911Z,1019.65
2017-02-14T06:24:22.881Z,1019.62
2017-02-14T06:25:22.858Z,1019.67
2017-02-14T06:26:22.838Z,1019.74
2017-02-14T06:27:22.812Z,1019.73
2017-02-14T06:28:22.793Z,1019.67
2017-02-14T06:29:22.764Z,1019.69
2017-02-14T06:30:22.741Z,1019.69
2017-02-14T06:31:22.718Z,1019.74
2017-02-14T06:32:22.694Z,1019.71
2017-02-14T06:33:22.668Z,1019.68
2017-02-14T06:34:22.646Z,1019.72
2017-02-14T06:35:22.623Z,1019.75
2017-02-14T06:36:22.599Z,1019.76
2017-02-14T06:37:22.576Z,1019.8
2017-02-14T06:38:22.551Z,1019.8
2017-02-14T06:39:22.528Z,1019.82
2017-02-14T06:40:22.503Z,1019.79
2017-02-14T06:41:22.478Z,1019.83
2017-02-14T06:42:22.455Z,1019.85
2017-02-14T06:43:22.433Z,1019.85
2017-02-14T06:44:22.408Z,1019.84
2017-02-14T06:45:22.384Z,1019.92
2017-02-14T06:46:22.361Z,1019.93
2017-02-14T06:47:22.338Z,1019.89
2017-02-14T06:48:22.313Z,1019.93
2017-02-14T06:49:22.292Z,1019.93
2017-02-14T06:50:22.266Z,1019.96
2017-02-14T06:51:22.244Z,1020.02
2017-02-14T06:52:22.219Z,1019.96
2017-02-14T06:53:22.197Z,1020
2017-02-14T06:54:22.172Z,1020.06
2017-02-14T06:55:22.148Z,1019.96
2017-02-14T06:56:22.125Z,1020.05
2017-02-14T06:57:22.103Z,1020.02
2017-02-14T06:58:22.078Z,1020.05
2017-02-14T06:59:22.053Z,1020.04
2017-02-14T07:00:22.029Z,1020.05
2017-02-14T07:01:22.006Z,1020.1
2017-02-14T07:02:21.983Z,1020.08
2017-02-14T07:03:21.959Z,1020.09
2017-02-14T07:04:21.935Z,1020.1
2017-02-14T07:05:21.913Z,1020.13
2017-02-14T07:06:21.888Z,1020.16
2017-02-14T07:07:21.866Z,1020.19
2017-02-14T07:08:21.841Z,1020.23
2017-02-14T07:09:21.820Z,1020.24
2017-02-14T07:10:21.797Z,1020.27
2017-02-14T07:11:21.773Z,1020.25
2017-02-14T07:12:21.747Z,1020.3
2017-02-14T07:13:21.723Z,1020.26
2017-02-14T07:14:21.699Z,1020.24
2017-02-14T07:15:21.676Z,1020.27
2017-02-14T07:16:21.652Z,1020.26
2017-02-14T07:17:21.627Z,1020.28
2017-02-14T07:18:21.604Z,1020.23
2017-02-14T07:19:21.581Z,1020.2
2017-02-14T07:20:21.558Z,1020.18
2017-02-14T07:21:21.534Z,1020.19
2017-02-14T07:22:21.511Z,1020.16
2017-02-14T07:23:21.489Z,1020.17
2017-02-14T07:24:21.462Z,1020.19
2017-02-14T07:25:21.439Z,1020.24
2017-02-14T07:26:21.416Z,1020.18
2017-02-14T07:27:21.393Z,1020.26
2017-02-14T07:28:21.370Z,1020.29
2017-02-14T07:29:21.346Z,1020.29
2017-02-14T07:30:21.340Z,1020.28
2017-02-14T07:31:21.299Z,1020.25
2017-02-14T07:32:21.275Z,1020.34
2017-02-14T07:33:21.252Z,1020.35
2017-02-14T07:34:21.229Z,1020.34
2017-02-14T07:35:21.213Z,1020.37
2017-02-14T07:36:21.181Z,1020.35
2017-02-14T07:37:21.159Z,1020.39
2017-02-14T07:38:21.155Z,1020.38
2017-02-14T07:39:21.114Z,1020.34
2017-02-14T07:40:21.088Z,1020.4
2017-02-14T07:41:21.065Z,1020.42
2017-02-14T07:42:21.046Z,1020.41
2017-02-14T07:43:21.023Z,1020.39
2017-02-14T07:44:20.996Z,1020.43
2017-02-14T07:45:21.001Z,1020.45
2017-02-14T07:46:20.949Z,1020.42
2017-02-14T07:47:20.926Z,1020.47
2017-02-14T07:48:20.902Z,1020.49
2017-02-14T07:49:20.882Z,1020.47
2017-02-14T07:50:20.858Z,1020.47
2017-02-14T07:51:20.857Z,1020.55
2017-02-14T07:52:20.811Z,1020.54
2017-02-14T07:53:20.788Z,1020.58
2017-02-14T07:54:20.764Z,1020.58
2017-02-14T07:55:20.743Z,1020.6
2017-02-14T07:56:20.719Z,1020.56
2017-02-14T07:57:20.695Z,1020.61
2017-02-14T07:58:20.670Z,1020.6
2017-02-14T07:59:20.655Z,1020.61
2017-02-14T08:00:20.625Z,1020.61
2017-02-14T08:01:20.609Z,1020.62
2017-02-14T08:02:20.579Z,1020.65
2017-02-14T08:03:20.557Z,1020.65
2017-02-14T08:04:20.532Z,1020.64
2017-02-14T08:05:20.509Z,1020.69
2017-02-14T08:06:20.490Z,1020.7
2017-02-14T08:07:20.465Z,1020.76
2017-02-14T08:08:20.442Z,1020.72
2017-02-14T08:09:20.420Z,1020.71
2017-02-14T08:10:20.396Z,1020.74
2017-02-14T08:11:20.373Z,1020.75
2017-02-14T08:12:20.351Z,1020.73
2017-02-14T08:13:20.328Z,1020.73
2017-02-14T08:14:20.305Z,1020.76
2017-02-14T08:15:20.283Z,1020.76
2017-02-14T08:16:20.258Z,1020.79
2017-02-14T08:17:20.239Z,1020.81
2017-02-14T08:18:20.215Z,1020.78
2017-02-14T08:19:20.192Z,1020.8
2017-02-14T08:20:20.171Z,1020.82
2017-02-14T08:21:20.147Z,1020.85
2017-02-14T08:22:20.127Z,1020.85
2017-02-14T08:23:20.104Z,1020.88
2017-02-14T08:24:20.081Z,1020.87
2017-02-14T08:25:20.059Z,1020.85
2017-02-14T08:26:20.039Z,1020.81
2017-02-14T08:27:20.014Z,1020.82
2017-02-14T08:28:19.993Z,1020.88
2017-02-14T08:29:19.973Z,1020.86
2017-02-14T08:30:19.949Z,1020.89
2017-02-14T08:31:19.925Z,1020.9
2017-02-14T08:32:19.904Z,1020.92
2017-02-14T08:33:19.888Z,1020.96
2017-02-14T08:34:19.861Z,1020.97
2017-02-14T08:35:19.837Z,1021.01
2017-02-14T08:36:19.817Z,1021
2017-02-14T08:37:19.797Z,1021.03
2017-02-14T08:38:19.771Z,1021.03
2017-02-14T08:39:19.748Z,1021.08
2017-02-14T08:40:19.729Z,1021.1
2017-02-14T08:41:19.709Z,1021.14
2017-02-14T08:42:19.686Z,1021.12
2017-02-14T08:43:19.666Z,1021.14
2017-02-14T08:44:19.645Z,1021.15
2017-02-14T08:45:19.623Z,1021.17
2017-02-14T08:46:19.606Z,1021.14
2017-02-14T08:47:19.588Z,1021.16
2017-02-14T08:48:19.564Z,1021.17
2017-02-14T08:49:19.542Z,1021.14
2017-02-14T08:50:19.521Z,1021.13
2017-02-14T08:51:19.502Z,1021.13
2017-02-14T08:52:19.483Z,1021.17
2017-02-14T08:53:19.464Z,1021.19
2017-02-14T08:54:19.442Z,1021.2
2017-02-14T08:55:19.428Z,1021.14
2017-02-14T08:56:19.405Z,1021.2
2017-02-14T08:57:19.387Z,1021.23
2017-02-14T08:58:19.365Z,1021.25
2017-02-14T08:59:19.349Z,1021.23
2017-02-14T09:00:19.327Z,1021.24
2017-02-14T09:01:19.310Z,1021.26
2017-02-14T09:02:19.293Z,1021.3
2017-02-14T09:03:19.274Z,1021.3
2017-02-14T09:04:19.258Z,1021.33
2017-02-14T09:05:19.235Z,1021.37
2017-02-14T09:06:19.222Z,1021.37
2017-02-14T09:07:19.204Z,1021.36
2017-02-14T09:08:19.186Z,1021.4
2017-02-14T09:09:19.170Z,1021.4
2017-02-14T09:10:19.154Z,1021.43
2017-02-14T09:11:19.138Z,1021.44
2017-02-14T09:12:19.121Z,1021.41
2017-02-14T09:13:19.105Z,1021.4
2017-02-14T09:14:19.097Z,1021.42
2017-02-14T09:15:19.076Z,1021.36
2017-02-14T09:16:19.060Z,1021.33
2017-02-14T09:17:19.046Z,1021.32
2017-02-14T09:18:19.030Z,1021.33
2017-02-14T09:19:19.016Z,1021.37
2017-02-14T09:20:19.002Z,1021.41
2017-02-14T09:21:18.986Z,1021.42
2017-02-14T09:22:18.971Z,1021.46
2017-02-14T09:23:18.955Z,1021.45
2017-02-14T09:24:18.943Z,1021.48
2017-02-14T09:25:18.928Z,1021.49
2017-02-14T09:26:18.912Z,1021.49
2017-02-14T09:27:18.900Z,1021.53
2017-02-14T09:28:18.886Z,1021.53
2017-02-14T09:29:18.871Z,1021.57
2017-02-14T09:30:18.858Z,1021.54
2017-02-14T09:31:18.844Z,1021.55
2017-02-14T09:32:18.832Z,1021.57
2017-02-14T09:33:18.820Z,1021.59
2017-02-14T09:34:18.802Z,1021.55
2017-02-14T09:35:18.790Z,1021.53
2017-02-14T09:36:18.777Z,1021.51
2017-02-14T09:37:18.766Z,1021.54
2017-02-14T09:38:18.751Z,1021.56
2017-02-14T09:39:18.739Z,1021.54
2017-02-14T09:40:18.726Z,1021.55
2017-02-14T09:41:18.713Z,1021.56
2017-02-14T09:42:18.704Z,1021.54
2017-02-14T09:43:18.689Z,1021.62
2017-02-14T09:44:18.679Z,1021.59
2017-02-14T09:45:18.659Z,1021.63
2017-02-14T09:46:18.647Z,1021.62
2017-02-14T09:47:18.635Z,1021.63
2017-02-14T09:48:18.620Z,1021.68
2017-02-14T09:49:18.608Z,1021.73
2017-02-14T09:50:18.597Z,1021.69
2017-02-14T09:51:18.582Z,1021.67
2017-02-14T09:52:18.569Z,1021.67
2017-02-14T09:53:18.555Z,1021.67
2017-02-14T09:54:18.543Z,1021.71
2017-02-14T09:55:18.531Z,1021.67
2017-02-14T09:56:18.518Z,1021.66
2017-02-14T09:57:18.507Z,1021.61
2017-02-14T09:58:18.543Z,1021.63
2017-02-14T09:59:18.480Z,1021.64
2017-02-14T10:00:18.468Z,1021.65
2017-02-14T10:01:18.460Z,1021.62
2017-02-14T10:02:18.442Z,1021.64
2017-02-14T10:03:18.429Z,1021.61
2017-02-14T10:04:18.420Z,1021.68
2017-02-14T10:05:18.408Z,1021.72
2017-02-14T10:06:18.390Z,1021.72
2017-02-14T10:07:18.379Z,1021.72
2017-02-14T10:08:18.367Z,1021.77
2017-02-14T10:09:18.350Z,1021.77
2017-02-14T10:10:18.339Z,1021.83
2017-02-14T10:11:18.328Z,1021.84
2017-02-14T10:12:18.313Z,1021.83
2017-02-14T10:13:18.300Z,1021.86
2017-02-14T10:14:18.288Z,1021.84
2017-02-14T10:15:18.277Z,1021.86
2017-02-14T10:16:18.267Z,1021.9
2017-02-14T10:17:18.252Z,1021.91
2017-02-14T10:18:18.246Z,1021.93
2017-02-14T10:19:18.229Z,1021.9
2017-02-14T10:20:18.218Z,1021.95
2017-02-14T10:21:18.207Z,1021.94
2017-02-14T10:22:18.198Z,1021.97
2017-02-14T10:23:18.185Z,1022
2017-02-14T10:24:18.172Z,1022
2017-02-14T10:25:18.162Z,1022
2017-02-14T10:26:18.151Z,1022
2017-02-14T10:27:18.342Z,1021.97
2017-02-14T10:28:18.130Z,1021.99
2017-02-14T10:29:18.117Z,1021.99
2017-02-14T10:30:18.105Z,1021.93
2017-02-14T10:31:18.113Z,1022
2017-02-14T10:32:18.088Z,1021.98
2017-02-14T10:33:18.073Z,1021.96
2017-02-14T10:34:18.063Z,1022.02
2017-02-14T10:35:18.050Z,1022.03
2017-02-14T10:36:18.040Z,1021.99
2017-02-14T10:37:18.030Z,1022.07
2017-02-14T10:38:18.026Z,1022.02
2017-02-14T10:39:18.006Z,1022.03
2017-02-14T10:40:17.994Z,1022.05
2017-02-14T10:41:17.987Z,1022.09
2017-02-14T10:42:17.973Z,1022.06
2017-02-14T10:43:17.961Z,1022.1
2017-02-14T10:44:17.953Z,1022.1
2017-02-14T10:45:17.941Z,1022.08
2017-02-14T10:46:17.929Z,1022.13
2017-02-14T10:47:17.922Z,1022.04
2017-02-14T10:48:17.909Z,1022.04
2017-02-14T10:49:17.899Z,1022.05
2017-02-14T10:50:17.886Z,1022.1
2017-02-14T10:51:17.878Z,1022.06
2017-02-14T10:52:17.869Z,1022.09
2017-02-14T10:53:17.854Z,1022.09
2017-02-14T10:54:17.845Z,1022.01
2017-02-14T10:55:17.833Z,1022.01
2017-02-14T10:56:17.822Z,1022.09
2017-02-14T10:57:17.811Z,1022.06
2017-02-14T10:58:17.799Z,1022.03
2017-02-14T10:59:17.790Z,1022.07
2017-02-14T11:00:17.779Z,1022.07
2017-02-14T11:01:17.768Z,1022.03
2017-02-14T11:02:17.757Z,1022.01
2017-02-14T11:03:17.748Z,1022.12
2017-02-14T11:04:17.735Z,1022.07
2017-02-14T11:05:17.724Z,1022.07
2017-02-14T11:06:17.713Z,1022.07
2017-02-14T11:07:17.704Z,1022.1
2017-02-14T11:08:17.693Z,1022.12
2017-02-14T11:09:17.690Z,1022.08
2017-02-14T11:10:17.672Z,1022.04
2017-02-14T11:11:17.665Z,1022.03
2017-02-14T11:12:17.653Z,1021.99
2017-02-14T11:13:17.643Z,1022.02
2017-02-14T11:14:17.636Z,1022.01
2017-02-14T11:15:17.626Z,1022.02
2017-02-14T11:16:17.632Z,1021.99
2017-02-14T11:17:17.608Z,1022.02
2017-02-14T11:18:17.600Z,1022.01
2017-02-14T11:19:17.593Z,1022.02
2017-02-14T11:20:17.584Z,1022.01
2017-02-14T11:21:17.578Z,1022.02
2017-02-14T11:22:17.601Z,1022.04
2017-02-14T11:23:17.568Z,1021.99
2017-02-14T11:24:17.559Z,1021.99
2017-02-14T11:25:17.552Z,1021.99
2017-02-14T11:26:17.539Z,1021.97
2017-02-14T11:27:17.534Z,1022.01
2017-02-14T11:28:17.525Z,1021.96
2017-02-14T11:29:17.527Z,1021.99
2017-02-14T11:30:17.523Z,1021.94
2017-02-14T11:31:17.509Z,1021.97
2017-02-14T11:32:17.501Z,1021.99
2017-02-14T11:33:17.495Z,1022.02
2017-02-14T11:34:17.488Z,1022.01
2017-02-14T11:35:17.482Z,1022.02
2017-02-14T11:36:17.479Z,1022
2017-02-14T11:37:17.470Z,1021.98
2017-02-14T11:38:17.465Z,1022.02
2017-02-14T11:39:17.459Z,1022
2017-02-14T11:40:17.451Z,1022.03
2017-02-14T11:41:17.446Z,1022.01
2017-02-14T11:42:17.440Z,1022
2017-02-14T11:43:17.433Z,1021.98
2017-02-14T11:44:17.426Z,1021.99
2017-02-14T11:45:17.421Z,1021.94
2017-02-14T11:46:17.418Z,1021.95
2017-02-14T11:47:17.411Z,1021.97
2017-02-14T11:48:17.408Z,1022.01
2017-02-14T11:49:17.401Z,1021.98
2017-02-14T11:50:17.395Z,1022
2017-02-14T11:51:17.392Z,1021.98
2017-02-14T11:52:17.388Z,1021.96
2017-02-14T11:53:17.382Z,1021.98
2017-02-14T11:54:17.379Z,1022.01
2017-02-14T11:55:17.377Z,1022.03
2017-02-14T11:56:17.372Z,1021.98
2017-02-14T11:57:17.368Z,1022.02
2017-02-14T11:58:17.366Z,1022.04
2017-02-14T11:59:17.361Z,1022.02
2017-02-14T12:00:17.357Z,1022.06
2017-02-14T12:01:17.356Z,1022.07
2017-02-14T12:02:17.352Z,1022.03
2017-02-14T12:03:17.348Z,1022.07
2017-02-14T12:04:17.344Z,1022.1
2017-02-14T12:05:17.344Z,1022.09
2017-02-14T12:06:17.341Z,1022.06
2017-02-14T12:07:17.336Z,1022.05
2017-02-14T12:08:17.336Z,1022.03